Time;durP1;ratioP1;P1;durP2;ratioP2;P2;SDS_P1;SDS_P2;PMS_P1;PMS_P2;Temp;Humidity;BMP_temperature;BMP_pressure;BME280_temperature;BME280_humidity;BME280_pressure;Samples;Min_cycle;Max_cycle;Signal;HPM_P1;HPM_P2
2021/10/06 00:01:02;;;;;;;;;;;;;;;23.68;27.73;98860.66;4882232;29;828;-77
2021/10/06 00:03:27;;;;;;;;;;;;;;;23.59;27.92;98847.00;4882577;29;778;-77
2021/10/06 00:05:53;;;;;;;;;;;;;;;23.48;28.05;98850.06;4883604;29;789;-77
2021/10/06 00:08:18;;;;;;;;;;;;;;;23.35;28.10;98844.22;4882804;29;839;-77
2021/10/06 00:10:44;;;;;;;;;;;;;;;23.29;28.29;98851.66;4883683;29;779;-77
2021/10/06 00:13:10;;;;;;;;;;;;;;;23.04;28.65;98862.69;4882647;29;985;-77
2021/10/06 00:15:35;;;;;;;;;;;;;;;22.99;28.76;98854.69;4883390;29;1911;-77
2021/10/06 00:18:01;;;;;;;;;;;;;;;23.31;28.19;98854.88;4912161;29;800;-77
2021/10/06 00:20:26;;;;;;;;;;;;;;;23.20;28.34;98848.59;4922663;29;755;-78
2021/10/06 00:22:52;;;;;;;;;;;;;;;23.31;28.12;98849.19;4922670;29;816;-77
2021/10/06 00:25:17;;;;;;;;;;;;;;;23.30;28.24;98847.56;4922302;29;831;-78
2021/10/06 00:27:43;;;;;;;;;;;;;;;23.17;28.14;98855.16;4922487;29;823;-77
2021/10/06 00:30:08;;;;;;;;;;;;;;;23.18;28.10;98850.28;4922077;29;787;-77
2021/10/06 00:32:34;;;;;;;;;;;;;;;22.96;28.47;98847.84;4923139;29;700;-77
2021/10/06 00:34:59;;;;;;;;;;;;;;;22.99;28.60;98849.00;4921892;29;1974;-77
2021/10/06 00:37:25;;;;;;;;;;;;;;;22.86;28.35;98835.41;4923442;29;720;-77
2021/10/06 00:39:50;;;;;;;;;;;;;;;22.92;28.40;98843.47;4919882;29;1001;-78
2021/10/06 00:42:16;;;;;;;;;;;;;;;22.92;28.17;98837.78;4922836;29;717;-77
2021/10/06 00:44:41;;;;;;;;;;;;;;;22.78;28.33;98842.44;4904036;29;1007;-77
2021/10/06 00:47:09;;;;;;;;;;;;;;;22.87;28.39;98839.06;4923019;29;748;-77
2021/10/06 00:49:35;;;;;;;;;;;;;;;22.72;28.50;98835.69;4922432;29;724;-77
2021/10/06 00:52:00;;;;;;;;;;;;;;;22.77;28.32;98829.50;4920016;29;1142;-77
2021/10/06 00:54:26;;;;;;;;;;;;;;;22.72;28.43;98835.69;4862979;29;909;-77
2021/10/06 00:56:51;;;;;;;;;;;;;;;22.53;28.74;98839.25;4845302;29;1911;-77
2021/10/06 00:59:16;;;;;;;;;;;;;;;22.57;28.79;98842.84;4844958;29;865;-77
2021/10/06 01:01:42;;;;;;;;;;;;;;;22.63;28.63;98839.06;4845878;29;1118;-76
2021/10/06 01:04:07;;;;;;;;;;;;;;;22.71;28.65;98851.09;4829680;29;894;-77
2021/10/06 01:06:33;;;;;;;;;;;;;;;22.56;28.65;98844.06;4845264;29;988;-77
2021/10/06 01:08:59;;;;;;;;;;;;;;;22.54;28.84;98846.56;4844702;29;1022;-76
2021/10/06 01:11:24;;;;;;;;;;;;;;;22.57;28.79;98846.47;4814731;29;1041;-77
2021/10/06 01:13:50;;;;;;;;;;;;;;;22.53;28.69;98839.25;4829517;29;1042;-77
2021/10/06 01:16:15;;;;;;;;;;;;;;;22.49;28.58;98838.53;4845281;29;1919;-76
2021/10/06 01:18:41;;;;;;;;;;;;;;;22.44;28.84;98837.00;4828895;29;1015;-77
2021/10/06 01:21:10;;;;;;;;;;;;;;;22.30;29.20;98826.66;4845813;29;988;-77
2021/10/06 01:23:35;;;;;;;;;;;;;;;22.25;29.04;98824.31;4843989;29;1234;-77
2021/10/06 01:26:01;;;;;;;;;;;;;;;22.41;28.87;98820.03;4873399;29;948;-76
2021/10/06 01:28:26;;;;;;;;;;;;;;;22.43;29.00;98817.53;4881092;29;779;-77
2021/10/06 01:30:51;;;;;;;;;;;;;;;22.36;29.03;98812.81;4882455;29;956;-77
2021/10/06 01:33:17;;;;;;;;;;;;;;;22.21;29.36;98823.56;4881426;29;772;-77
2021/10/06 01:35:42;;;;;;;;;;;;;;;22.35;29.01;98812.00;4882019;29;1911;-77
2021/10/06 01:38:08;;;;;;;;;;;;;;;22.36;28.79;98819.28;4881298;29;784;-77
2021/10/06 01:40:33;;;;;;;;;;;;;;;22.29;28.67;98813.72;4896459;29;926;-77
2021/10/06 01:42:59;;;;;;;;;;;;;;;22.27;28.76;98810.50;4902249;29;864;-77
2021/10/06 01:45:28;;;;;;;;;;;;;;;22.30;28.81;98818.16;4902036;29;807;-78
2021/10/06 01:47:53;;;;;;;;;;;;;;;22.34;28.58;98821.75;4902432;29;768;-77
2021/10/06 01:50:19;;;;;;;;;;;;;;;22.10;29.10;98808.75;4902420;29;812;-77
2021/10/06 01:52:45;;;;;;;;;;;;;;;22.09;28.86;98799.44;4901980;29;837;-77
2021/10/06 01:55:10;;;;;;;;;;;;;;;22.14;29.05;98803.84;4902281;29;1903;-77
2021/10/06 01:57:35;;;;;;;;;;;;;;;22.05;29.20;98804.34;4923819;29;1179;-77
2021/10/06 02:00:01;;;;;;;;;;;;;;;22.05;29.34;98809.22;4940092;29;779;-77
2021/10/06 02:02:26;;;;;;;;;;;;;;;22.00;29.32;98798.38;4941156;29;883;-77
2021/10/06 02:04:52;;;;;;;;;;;;;;;21.99;28.97;98808.13;4940193;29;835;-77
2021/10/06 02:07:17;;;;;;;;;;;;;;;21.99;29.01;98799.63;4907210;29;1052;-77
2021/10/06 02:09:43;;;;;;;;;;;;;;;22.01;29.09;98808.47;4939927;29;856;-77
2021/10/06 02:12:08;;;;;;;;;;;;;;;22.08;28.63;98822.56;4940645;29;752;-76
2021/10/06 02:14:33;;;;;;;;;;;;;;;22.10;28.59;98817.25;4939536;29;713;-77
2021/10/06 02:16:59;;;;;;;;;;;;;;;22.05;28.84;98817.72;4940745;29;1914;-76
2021/10/06 02:19:24;;;;;;;;;;;;;;;21.99;28.79;98816.63;4905961;29;952;-77
2021/10/06 02:21:52;;;;;;;;;;;;;;;22.17;28.59;98813.53;4940437;29;752;-77
2021/10/06 02:24:18;;;;;;;;;;;;;;;22.06;28.70;98816.50;4939442;29;901;-77
2021/10/06 02:26:43;;;;;;;;;;;;;;;22.10;28.70;98814.41;4906695;29;1019;-77
2021/10/06 02:29:09;;;;;;;;;;;;;;;21.98;28.76;98821.50;4939356;29;760;-77
2021/10/06 02:31:34;;;;;;;;;;;;;;;21.92;28.92;98817.53;4940395;29;855;-77
2021/10/06 02:34:00;;;;;;;;;;;;;;;21.94;29.02;98814.25;4939547;29;998;-77
2021/10/06 02:36:25;;;;;;;;;;;;;;;21.84;29.12;98811.16;4940741;29;1911;-77
2021/10/06 02:38:51;;;;;;;;;;;;;;;21.88;28.88;98810.31;4917693;29;1271;-77
2021/10/06 02:41:16;;;;;;;;;;;;;;;21.94;28.99;98808.59;4919071;29;791;-77
2021/10/06 02:43:42;;;;;;;;;;;;;;;22.02;29.00;98812.91;4917663;29;923;-77
2021/10/06 02:46:07;;;;;;;;;;;;;;;21.96;28.82;98803.28;4919385;29;800;-76
2021/10/06 02:48:32;;;;;;;;;;;;;;;21.93;28.97;98818.34;4917386;29;769;-76
2021/10/06 02:50:58;;;;;;;;;;;;;;;21.81;29.36;98814.88;4919312;29;788;-77
2021/10/06 02:53:23;;;;;;;;;;;;;;;21.97;28.66;98813.41;4901859;29;967;-76
2021/10/06 02:55:48;;;;;;;;;;;;;;;21.87;29.09;98808.72;4918198;29;1900;-76
2021/10/06 02:58:14;;;;;;;;;;;;;;;21.81;28.96;98812.03;4919503;29;1092;-77
2021/10/06 03:00:40;;;;;;;;;;;;;;;21.90;28.82;98802.19;4921266;29;804;-77
2021/10/06 03:03:05;;;;;;;;;;;;;;;21.72;29.03;98819.44;4921305;29;962;-77
2021/10/06 03:05:30;;;;;;;;;;;;;;;21.73;29.14;98810.50;4922449;29;848;-76
2021/10/06 03:07:56;;;;;;;;;;;;;;;21.96;28.39;98801.25;4921684;29;876;-77
2021/10/06 03:10:21;;;;;;;;;;;;;;;21.83;28.97;98803.88;4922323;29;946;-77
2021/10/06 03:12:50;;;;;;;;;;;;;;;21.84;28.64;98805.50;4922119;29;868;-77
2021/10/06 03:15:15;;;;;;;;;;;;;;;21.84;28.66;98799.81;4921835;29;1895;-77
2021/10/06 03:17:40;;;;;;;;;;;;;;;21.82;28.72;98805.13;4924664;29;715;-77
2021/10/06 03:20:06;;;;;;;;;;;;;;;21.81;28.90;98817.69;4923880;29;744;-78
2021/10/06 03:22:32;;;;;;;;;;;;;;;21.73;28.83;98804.84;4924346;29;808;-77
2021/10/06 03:24:57;;;;;;;;;;;;;;;21.87;28.41;98803.06;4923418;29;835;-77
2021/10/06 03:27:23;;;;;;;;;;;;;;;21.84;28.54;98811.16;4884487;29;1257;-77
2021/10/06 03:29:48;;;;;;;;;;;;;;;21.74;28.61;98797.94;4868326;29;869;-77
2021/10/06 03:32:14;;;;;;;;;;;;;;;21.83;28.58;98805.94;4884929;29;804;-77
2021/10/06 03:34:39;;;;;;;;;;;;;;;21.80;28.46;98807.56;4883680;29;1899;-77
2021/10/06 03:37:04;;;;;;;;;;;;;;;21.69;29.15;98814.63;4884007;29;860;-76
2021/10/06 03:39:30;;;;;;;;;;;;;;;21.74;28.96;98816.97;4882987;29;884;-77
2021/10/06 03:41:56;;;;;;;;;;;;;;;21.77;28.63;98805.59;4884461;29;832;-78
2021/10/06 03:44:21;;;;;;;;;;;;;;;21.70;29.34;98817.03;4883552;29;755;-78
2021/10/06 03:46:47;;;;;;;;;;;;;;;21.80;29.21;98806.78;4883485;29;1017;-76
2021/10/06 03:49:12;;;;;;;;;;;;;;;21.71;29.31;98801.66;4883164;29;733;-77
2021/10/06 03:51:38;;;;;;;;;;;;;;;21.83;29.12;98801.06;4883583;29;1146;-76
2021/10/06 03:54:03;;;;;;;;;;;;;;;21.89;29.37;98801.38;4882760;29;866;-77
2021/10/06 03:56:29;;;;;;;;;;;;;;;21.95;29.53;98796.81;4883835;29;2110;-77
2021/10/06 03:58:54;;;;;;;;;;;;;;;21.82;29.80;98799.47;4911907;29;959;-76
2021/10/06 04:01:19;;;;;;;;;;;;;;;21.79;29.92;98793.84;4924563;29;969;-76
2021/10/06 04:03:45;;;;;;;;;;;;;;;21.82;29.77;98785.28;4923684;29;891;-76
2021/10/06 04:06:10;;;;;;;;;;;;;;;21.97;29.78;98790.75;4926019;29;873;-77
2021/10/06 04:08:38;;;;;;;;;;;;;;;21.81;29.98;98777.19;4922155;29;1643;-76
2021/10/06 04:11:04;;;;;;;;;;;;;;;21.80;30.00;98779.25;4923394;29;936;-71
2021/10/06 04:13:29;;;;;;;;;;;;;;;22.10;29.86;98778.41;4923228;29;983;-77
2021/10/06 04:15:55;;;;;;;;;;;;;;;22.03;29.78;98784.16;4925056;29;1914;-77
2021/10/06 04:18:20;;;;;;;;;;;;;;;21.99;30.07;98779.78;4921765;29;1709;-77
2021/10/06 04:20:46;;;;;;;;;;;;;;;21.99;30.06;98788.28;4923358;29;997;-78
2021/10/06 04:23:11;;;;;;;;;;;;;;;21.91;30.25;98786.78;4922081;29;932;-77
2021/10/06 04:25:37;;;;;;;;;;;;;;;21.90;30.10;98790.84;4922370;29;1126;-76
2021/10/06 04:28:02;;;;;;;;;;;;;;;21.93;30.10;98779.47;4921712;29;1683;-76
2021/10/06 04:30:28;;;;;;;;;;;;;;;21.91;30.24;98781.09;4923998;29;1790;-77
2021/10/06 04:32:53;;;;;;;;;;;;;;;21.92;30.20;98777.88;4920881;29;1455;-78
2021/10/06 04:35:19;;;;;;;;;;;;;;;21.94;29.92;98777.44;4920342;29;1911;-77
2021/10/06 04:37:44;;;;;;;;;;;;;;;21.93;30.02;98785.13;4921505;29;920;-77
2021/10/06 04:40:10;;;;;;;;;;;;;;;21.85;30.03;98777.97;4921992;29;1579;-77
2021/10/06 04:42:35;;;;;;;;;;;;;;;21.92;29.89;98777.88;4890020;29;942;-78
2021/10/06 04:45:01;;;;;;;;;;;;;;;21.82;30.27;98776.81;4923006;29;999;-78
2021/10/06 04:47:26;;;;;;;;;;;;;;;21.85;29.96;98778.75;4922124;29;1022;-77
2021/10/06 04:49:52;;;;;;;;;;;;;;;21.81;30.01;98778.03;4922848;29;1666;-77
2021/10/06 04:52:17;;;;;;;;;;;;;;;21.82;30.05;98776.00;4920585;29;993;-78
2021/10/06 04:54:43;;;;;;;;;;;;;;;21.92;29.81;98788.41;4922433;29;1887;-78
2021/10/06 04:57:08;;;;;;;;;;;;;;;21.97;29.84;98782.25;4931492;29;1254;-77
2021/10/06 04:59:33;;;;;;;;;;;;;;;22.02;29.77;98787.41;4941613;29;1643;-78
2021/10/06 05:01:59;;;;;;;;;;;;;;;22.03;29.83;98789.84;4941642;29;982;-77
2021/10/06 05:04:25;;;;;;;;;;;;;;;21.71;30.26;98778.16;4923055;29;1027;-78
2021/10/06 05:06:51;;;;;;;;;;;;;;;21.87;30.08;98777.56;4941385;29;944;-79
2021/10/06 05:09:17;;;;;;;;;;;;;;;21.88;30.18;98781.97;4907827;29;1625;-77
2021/10/06 05:11:43;;;;;;;;;;;;;;;21.85;29.95;98773.09;4941386;29;1086;-77
2021/10/06 05:14:08;;;;;;;;;;;;;;;21.91;29.89;98781.09;4940557;29;1047;-77
2021/10/06 05:16:34;;;;;;;;;;;;;;;21.98;30.21;98778.97;4942032;29;1907;-78
2021/10/06 05:18:59;;;;;;;;;;;;;;;21.88;30.04;98781.97;4937510;29;1417;-77
2021/10/06 05:21:25;;;;;;;;;;;;;;;21.79;30.52;98780.47;4938104;29;1756;-77
2021/10/06 05:23:50;;;;;;;;;;;;;;;21.76;30.34;98787.00;4920614;29;1022;-78
2021/10/06 05:26:15;;;;;;;;;;;;;;;21.67;30.55;98785.94;4941543;29;1268;-78
2021/10/06 05:28:41;;;;;;;;;;;;;;;21.75;30.45;98782.56;4940316;29;1461;-78
2021/10/06 05:31:07;;;;;;;;;;;;;;;21.75;30.64;98793.09;4942892;29;898;-78
2021/10/06 05:33:32;;;;;;;;;;;;;;;21.88;30.41;98794.13;4940657;29;1003;-77
2021/10/06 05:35:58;;;;;;;;;;;;;;;21.93;30.33;98795.66;4902716;29;1976;-78
2021/10/06 05:38:23;;;;;;;;;;;;;;;21.77;30.73;98797.09;4900588;29;1676;-78
2021/10/06 05:40:49;;;;;;;;;;;;;;;21.88;30.28;98793.31;4902565;29;974;-79
2021/10/06 05:43:14;;;;;;;;;;;;;;;21.78;30.57;98795.06;4899918;29;1592;-78
2021/10/06 05:45:39;;;;;;;;;;;;;;;21.82;30.61;98788.13;4900851;29;1022;-77
2021/10/06 05:48:05;;;;;;;;;;;;;;;21.94;30.46;98789.56;4900264;29;1621;-78
2021/10/06 05:50:31;;;;;;;;;;;;;;;21.75;30.95;98785.38;4900424;29;1589;-78
2021/10/06 05:52:59;;;;;;;;;;;;;;;21.84;30.82;98788.50;4863860;29;1081;-77
2021/10/06 05:55:25;;;;;;;;;;;;;;;21.83;30.80;98786.91;4845000;29;1907;-78
2021/10/06 05:57:50;;;;;;;;;;;;;;;21.74;30.99;98794.31;4829941;29;1635;-77
2021/10/06 06:00:16;;;;;;;;;;;;;;;21.77;30.90;98796.31;4844964;29;1142;-78
2021/10/06 06:02:46;;;;;;;;;;;;;;;21.83;30.88;98786.91;4844990;29;985;-78
2021/10/06 06:05:11;;;;;;;;;;;;;;;21.87;30.64;98800.22;4808313;29;1588;-78
2021/10/06 06:07:37;;;;;;;;;;;;;;;21.82;30.83;98796.63;4800828;29;1012;-78
2021/10/06 06:10:03;;;;;;;;;;;;;;;21.87;30.70;98798.19;4790268;30;935;-78
2021/10/06 06:12:28;;;;;;;;;;;;;;;21.84;30.81;98791.31;4791773;30;950;-77
2021/10/06 06:14:54;;;;;;;;;;;;;;;21.83;30.77;98809.56;4790663;30;1911;-78
2021/10/06 06:17:19;;;;;;;;;;;;;;;21.88;30.92;98801.81;4791244;30;1605;-79
2021/10/06 06:19:45;;;;;;;;;;;;;;;21.77;31.05;98799.94;4791386;30;993;-78
2021/10/06 06:22:10;;;;;;;;;;;;;;;21.89;30.70;98800.56;4774953;30;966;-79
2021/10/06 06:24:35;;;;;;;;;;;;;;;21.84;30.79;98794.16;4771418;30;942;-78
2021/10/06 06:27:01;;;;;;;;;;;;;;;21.78;30.63;98795.88;4774055;30;1986;-78
2021/10/06 06:29:26;;;;;;;;;;;;;;;21.94;30.73;98797.25;4777282;29;994;-78
2021/10/06 06:31:52;;;;;;;;;;;;;;;21.84;30.75;98810.34;4810716;29;913;-77
2021/10/06 06:34:17;;;;;;;;;;;;;;;21.93;30.55;98802.13;4811881;29;982;-77
2021/10/06 06:36:42;;;;;;;;;;;;;;;21.82;31.08;98802.28;4840350;29;1994;-78
2021/10/06 06:39:08;;;;;;;;;;;;;;;21.80;31.04;98793.41;4848811;29;1622;-81
2021/10/06 06:41:33;;;;;;;;;;;;;;;21.93;30.91;98792.84;4881256;29;966;-79
2021/10/06 06:44:00;;;;;;;;;;;;;;;21.98;30.94;98798.03;4885799;29;906;-76
2021/10/06 06:46:25;;;;;;;;;;;;;;;21.95;30.89;98805.31;4868835;29;1649;-76
2021/10/06 06:48:51;;;;;;;;;;;;;;;21.94;30.57;98797.25;4884168;29;966;-77
2021/10/06 06:51:16;;;;;;;;;;;;;;;21.88;30.83;98810.31;4884856;29;976;-77
2021/10/06 06:53:42;;;;;;;;;;;;;;;21.90;30.90;98796.50;4886770;29;1047;-78
2021/10/06 06:56:07;;;;;;;;;;;;;;;21.84;31.22;98801.84;4877979;29;1923;-77
2021/10/06 06:58:33;;;;;;;;;;;;;;;21.79;31.22;98802.34;4942912;29;1029;-77
2021/10/06 07:00:58;;;;;;;;;;;;;;;21.96;30.79;98806.13;4945135;29;1652;-78
2021/10/06 07:03:23;;;;;;;;;;;;;;;21.87;31.05;98803.06;4943601;29;931;-77
2021/10/06 07:05:49;;;;;;;;;;;;;;;21.84;31.05;98807.53;4944311;29;1880;-77
2021/10/06 07:08:14;;;;;;;;;;;;;;;21.82;31.19;98807.97;4893579;29;1950;-77
2021/10/06 07:10:40;;;;;;;;;;;;;;;21.82;31.01;98799.47;4943589;29;943;-77
2021/10/06 07:13:05;;;;;;;;;;;;;;;21.87;31.13;98815.19;4943223;29;852;-77
2021/10/06 07:15:30;;;;;;;;;;;;;;;21.79;31.15;98816.50;4942139;29;1988;-77
2021/10/06 07:17:56;;;;;;;;;;;;;;;21.93;31.45;98824.81;4924314;29;1239;-74
2021/10/06 07:20:22;;;;;;;;;;;;;;;22.00;31.23;98812.53;4941592;29;885;-74
2021/10/06 07:24:34;;;;;;;;;;;;;;;22.15;31.03;98813.97;5093231;27;1525;-77
2021/10/06 07:26:59;;;;;;;;;;;;;;;22.26;31.02;98823.09;5130607;28;1701;-77
2021/10/06 07:29:25;;;;;;;;;;;;;;;22.30;30.74;98815.34;5132298;28;1173;-76
2021/10/06 07:31:50;;;;;;;;;;;;;;;22.32;30.89;98824.19;5133525;28;1087;-77
2021/10/06 07:34:16;;;;;;;;;;;;;;;22.25;31.09;98821.50;5115012;28;1552;-77
2021/10/06 07:36:41;;;;;;;;;;;;;;;22.30;30.66;98814.53;5117921;28;1672;-77
2021/10/06 07:39:06;;;;;;;;;;;;;;;22.28;30.68;98817.81;5111471;28;959;-77
2021/10/06 07:41:32;;;;;;;;;;;;;;;22.11;31.27;98818.88;5111986;28;1089;-77
2021/10/06 07:43:59;;;;;;;;;;;;;;;22.17;30.79;98820.00;5070718;28;1910;-77
2021/10/06 07:46:24;;;;;;;;;;;;;;;22.11;31.09;98824.53;5072119;28;1867;-77
2021/10/06 07:48:50;;;;;;;;;;;;;;;22.12;30.80;98828.97;5030841;28;993;-77
2021/10/06 07:51:15;;;;;;;;;;;;;;;22.16;30.75;98826.91;5012351;28;961;-77
2021/10/06 07:53:40;;;;;;;;;;;;;;;22.19;30.51;98831.72;5011198;28;981;-75
2021/10/06 07:56:06;;;;;;;;;;;;;;;22.14;30.86;98834.25;5012259;28;1917;-77
2021/10/06 07:58:32;;;;;;;;;;;;;;;22.18;30.80;98832.97;4982878;28;981;-77
2021/10/06 08:00:57;;;;;;;;;;;;;;;22.25;30.51;98818.66;4972856;28;915;-77
2021/10/06 08:03:23;;;;;;;;;;;;;;;22.20;30.40;98824.00;4972164;28;1978;-77
2021/10/06 08:05:48;;;;;;;;;;;;;;;22.20;30.64;98833.31;4979782;28;1668;-77
2021/10/06 08:08:14;;;;;;;;;;;;;;;22.17;30.79;98836.19;4992263;28;989;-77
2021/10/06 08:10:40;;;;;;;;;;;;;;;22.12;30.77;98834.66;4993003;28;1175;-77
2021/10/06 08:13:05;;;;;;;;;;;;;;;22.24;30.37;98828.41;4979615;28;1010;-78
2021/10/06 08:15:32;;;;;;;;;;;;;;;22.31;30.40;98827.47;5007197;28;2037;-77
2021/10/06 08:17:57;;;;;;;;;;;;;;;22.27;30.29;98824.69;5011555;28;1023;-77
2021/10/06 08:20:24;;;;;;;;;;;;;;;22.21;30.43;98828.44;5040785;28;924;-78
2021/10/06 08:22:49;;;;;;;;;;;;;;;22.22;30.26;98830.84;5064140;28;1898;-78
2021/10/06 08:25:15;;;;;;;;;;;;;;;22.16;30.40;98838.22;5090733;28;2065;-77
2021/10/06 08:27:40;;;;;;;;;;;;;;;22.06;30.50;98828.63;5090883;28;1184;-76
2021/10/06 08:30:06;;;;;;;;;;;;;;;22.09;30.48;98838.31;5089010;28;1494;-76
2021/10/06 08:32:31;;;;;;;;;;;;;;;22.01;30.81;98828.31;5049294;28;886;-76
2021/10/06 08:34:56;;;;;;;;;;;;;;;22.07;30.52;98827.44;5041599;28;886;-76
2021/10/06 08:37:22;;;;;;;;;;;;;;;22.01;30.51;98825.47;5036495;28;1950;-76
2021/10/06 08:39:48;;;;;;;;;;;;;;;22.21;30.65;98826.41;5035992;28;979;-76
2021/10/06 08:42:13;;;;;;;;;;;;;;;22.24;30.51;98828.41;5036062;28;1906;-77
2021/10/06 08:44:39;;;;;;;;;;;;;;;22.12;30.71;98820.47;5036663;28;990;-76
2021/10/06 08:47:05;;;;;;;;;;;;;;;22.16;30.60;98821.22;5036071;28;1824;-76
2021/10/06 08:49:31;;;;;;;;;;;;;;;22.14;30.26;98818.03;5019695;28;921;-76
2021/10/06 08:51:57;;;;;;;;;;;;;;;22.09;30.56;98816.44;5036050;28;1034;-76
2021/10/06 08:54:22;;;;;;;;;;;;;;;22.29;30.30;98813.72;5036353;28;1063;-76
2021/10/06 08:56:48;;;;;;;;;;;;;;;22.19;30.38;98814.72;5035899;28;1929;-76
2021/10/06 08:59:13;;;;;;;;;;;;;;;22.07;30.43;98812.44;5036066;28;1064;-76
2021/10/06 09:01:42;;;;;;;;;;;;;;;22.21;30.06;98805.75;5035965;28;951;-76
2021/10/06 09:04:07;;;;;;;;;;;;;;;22.18;30.11;98804.59;5035549;28;1906;-77
2021/10/06 09:06:36;;;;;;;;;;;;;;;22.20;30.13;98810.63;5035853;28;2083;-77
2021/10/06 09:09:22;;;;;;;;;;;;;;;22.29;30.53;98807.25;5040272;28;1050;-71
2021/10/06 09:11:49;;;;;;;;;;;;;;;22.34;30.82;98810.41;5076999;28;2006;-69
2021/10/06 09:14:15;;;;;;;;;;;;;;;22.31;31.41;98810.47;5077123;28;2075;-72
2021/10/06 09:16:41;;;;;;;;;;;;;;;22.31;31.46;98816.13;5094388;28;2052;-67
2021/10/06 09:19:07;;;;;;;;;;;;;;;22.32;31.17;98821.38;5071787;28;1106;-67
2021/10/06 09:21:51;;;;;;;;;;;;;;;22.30;31.29;98814.53;5057378;28;1113;-67
2021/10/06 09:24:17;;;;;;;;;;;;;;;22.43;31.22;98821.19;5072806;28;1906;-67
2021/10/06 09:26:42;;;;;;;;;;;;;;;22.41;31.19;98818.00;5075182;28;1310;-67
2021/10/06 09:29:18;;;;;;;;;;;;;;;22.33;31.20;98820.16;5077249;28;1803;-71
2021/10/06 09:31:44;;;;;;;;;;;;;;;22.36;31.60;98819.28;5077102;28;885;-70
2021/10/06 09:34:09;;;;;;;;;;;;;;;22.46;31.47;98828.84;5076218;28;959;-70
2021/10/06 09:36:36;;;;;;;;;;;;;;;22.51;31.14;98821.88;5114856;28;979;-70
2021/10/06 09:39:10;;;;;;;;;;;;;;;22.44;31.41;98824.84;5115664;28;1099;-70
2021/10/06 09:41:38;;;;;;;;;;;;;;;22.34;31.87;98827.41;5127057;27;2717;-70
2021/10/06 09:44:06;;;;;;;;;;;;;;;22.44;31.56;98814.31;5117189;27;1906;-69
2021/10/06 09:46:33;;;;;;;;;;;;;;;22.53;31.39;98808.84;5117697;27;2050;-70
2021/10/06 09:48:58;;;;;;;;;;;;;;;22.67;31.53;98816.31;5088357;28;1895;-70
2021/10/06 09:51:24;;;;;;;;;;;;;;;22.71;31.17;98810.59;5117687;27;1045;-69
2021/10/06 09:53:49;;;;;;;;;;;;;;;22.61;31.35;98823.72;5115973;27;1974;-69
2021/10/06 09:56:16;;;;;;;;;;;;;;;22.63;31.50;98812.72;5115075;28;1050;-69
2021/10/06 09:58:42;;;;;;;;;;;;;;;22.47;31.74;98816.25;5094267;28;1075;-70
2021/10/06 10:01:08;;;;;;;;;;;;;;;22.61;31.77;98812.38;5073801;28;1040;-70
2021/10/06 10:03:33;;;;;;;;;;;;;;;22.62;31.34;98803.44;5057314;28;1906;-69
2021/10/06 10:05:59;;;;;;;;;;;;;;;22.60;31.75;98803.06;5033733;28;1874;-69
2021/10/06 10:08:24;;;;;;;;;;;;;;;22.76;31.57;98808.06;4987001;28;1484;-69
2021/10/06 10:10:49;;;;;;;;;;;;;;;22.69;31.59;98808.19;4994210;28;1028;-70
2021/10/06 10:13:15;;;;;;;;;;;;;;;23.24;31.85;98806.72;5224373;22;3856;-70
2021/10/06 10:15:40;;;;;;;;;;;;;;;23.52;31.95;98796.00;5116212;28;1624;-69
2021/10/06 10:18:06;;;;;;;;;;;;;;;23.06;32.25;98809.16;5117740;28;1030;-69
2021/10/06 10:20:33;;;;;;;;;;;;;;;22.77;32.09;98809.66;5116634;28;924;-68
2021/10/06 10:23:02;;;;;;;;;;;;;;;22.66;32.00;98820.41;5108438;28;1905;-69
2021/10/06 10:25:31;;;;;;;;;;;;;;;22.50;32.01;98823.13;5095059;28;1181;-68
2021/10/06 10:28:00;;;;;;;;;;;;;;;22.72;31.27;98818.66;5053756;28;1930;-70
2021/10/06 10:30:26;;;;;;;;;;;;;;;22.77;31.11;98814.53;5054555;28;1029;-70
2021/10/06 10:32:51;;;;;;;;;;;;;;;22.74;31.14;98801.19;5049125;28;1907;-70
2021/10/06 10:35:20;;;;;;;;;;;;;;;22.58;30.91;98807.56;5051332;28;2319;-70
2021/10/06 10:37:46;;;;;;;;;;;;;;;22.56;31.09;98788.16;5054621;28;1105;-69
2021/10/06 10:40:30;;;;;;;;;;;;;;;22.59;30.86;98797.84;5161311;22;4085;-69
2021/10/06 10:43:02;;;;;;;;;;;;;;;23.21;32.67;98799.09;5100579;28;1906;-69
2021/10/06 10:45:41;;;;;;;;;;;;;;;22.93;32.78;98794.78;5116940;28;2237;-69
2021/10/06 10:48:07;;;;;;;;;;;;;;;22.72;32.61;98789.50;5062018;28;2080;-68
2021/10/06 10:50:44;;;;;;;;;;;;;;;22.72;32.08;98780.97;5014603;28;1142;-68
2021/10/06 10:53:13;;;;;;;;;;;;;;;22.57;31.80;98777.59;5025112;28;2042;-68
2021/10/06 10:55:52;;;;;;;;;;;;;;;22.49;31.61;98784.66;4994547;28;1990;-71
2021/10/06 10:58:30;;;;;;;;;;;;;;;22.51;31.66;98774.47;4986966;28;1734;-72
2021/10/06 11:00:59;;;;;;;;;;;;;;;22.69;31.40;98779.00;4985503;28;1619;-71
2021/10/06 11:03:25;;;;;;;;;;;;;;;22.61;31.04;98784.00;4994892;28;1976;-69
2021/10/06 11:05:52;;;;;;;;;;;;;;;22.55;30.99;98780.88;4994603;28;985;-70
2021/10/06 11:08:30;;;;;;;;;;;;;;;22.67;30.60;98768.09;4994983;28;1086;-71
2021/10/06 11:11:13;;;;;;;;;;;;;;;22.27;31.71;98767.97;4973685;28;1936;-71
2021/10/06 11:13:40;;;;;;;;;;;;;;;22.45;31.11;98769.72;4971553;28;1952;-71
2021/10/06 11:16:05;;;;;;;;;;;;;;;22.56;30.91;98771.13;4956017;29;1048;-70
2021/10/06 11:18:48;;;;;;;;;;;;;;;22.51;30.75;98779.34;4960911;28;1041;-71
2021/10/06 11:21:37;;;;;;;;;;;;;;;22.40;30.82;98773.06;4997832;28;1958;-73
2021/10/06 11:24:20;;;;;;;;;;;;;;;22.50;30.55;98769.22;4974786;28;1910;-71
2021/10/06 11:26:45;;;;;;;;;;;;;;;22.55;30.70;98772.38;4986055;28;1076;-70
2021/10/06 11:29:11;;;;;;;;;;;;;;;22.55;30.58;98763.06;4936595;29;978;-70
2021/10/06 11:31:36;;;;;;;;;;;;;;;22.47;30.45;98772.91;4936357;29;1882;-72
2021/10/06 11:34:03;;;;;;;;;;;;;;;22.42;30.46;98770.56;4946672;29;1427;-72
2021/10/06 11:36:29;;;;;;;;;;;;;;;22.41;30.85;98763.31;4952013;29;1045;-71
2021/10/06 11:39:00;;;;;;;;;;;;;;;22.47;30.49;98758.75;4952060;29;1046;-71
2021/10/06 11:41:26;;;;;;;;;;;;;;;22.73;30.30;98766.34;4952947;28;1898;-70
2021/10/06 11:43:52;;;;;;;;;;;;;;;22.53;30.26;98760.63;4935697;29;1907;-70
2021/10/06 11:46:31;;;;;;;;;;;;;;;22.43;30.35;98766.50;4916695;29;1312;-70
2021/10/06 11:48:57;;;;;;;;;;;;;;;22.47;30.32;98753.88;4917294;29;1030;-70
2021/10/06 11:51:35;;;;;;;;;;;;;;;22.48;30.33;98760.34;4916672;29;1809;-70
2021/10/06 11:54:01;;;;;;;;;;;;;;;22.54;30.01;98755.78;4919727;29;998;-71
2021/10/06 11:56:27;;;;;;;;;;;;;;;22.45;30.24;98752.72;4955296;29;1021;-70
2021/10/06 11:58:53;;;;;;;;;;;;;;;22.42;30.68;98757.19;4955213;29;1231;-71
2021/10/06 12:01:18;;;;;;;;;;;;;;;22.36;30.29;98759.72;4954970;29;1969;-70
2021/10/06 12:03:43;;;;;;;;;;;;;;;22.46;30.53;98757.16;4939091;29;1918;-71
2021/10/06 12:06:09;;;;;;;;;;;;;;;22.32;30.31;98753.31;4960653;28;1157;-70
2021/10/06 12:08:35;;;;;;;;;;;;;;;22.30;30.41;98752.97;4974827;28;1014;-70
2021/10/06 12:11:03;;;;;;;;;;;;;;;22.51;30.40;98753.81;4977044;28;1904;-70
2021/10/06 12:13:36;;;;;;;;;;;;;;;22.40;30.09;98753.22;4978267;28;1046;-71
2021/10/06 12:16:18;;;;;;;;;;;;;;;22.42;30.15;98754.38;5004474;28;986;-71
2021/10/06 12:18:59;;;;;;;;;;;;;;;22.32;30.34;98756.16;5036550;28;1573;-71
2021/10/06 12:21:25;;;;;;;;;;;;;;;22.42;30.17;98759.25;5036493;28;1626;-71
2021/10/06 12:23:50;;;;;;;;;;;;;;;22.36;30.17;98756.91;5036804;28;1977;-72
2021/10/06 12:26:16;;;;;;;;;;;;;;;22.48;29.83;98763.97;5001759;28;1868;-72
2021/10/06 12:28:51;;;;;;;;;;;;;;;22.59;29.76;98758.13;5036351;28;1803;-71
2021/10/06 12:31:28;;;;;;;;;;;;;;;22.57;29.71;98757.75;5016896;28;1118;-69
2021/10/06 12:34:02;;;;;;;;;;;;;;;22.32;30.07;98753.31;4999671;28;1977;-71
2021/10/06 12:36:28;;;;;;;;;;;;;;;22.30;30.36;98758.63;5018878;28;1097;-72
2021/10/06 12:38:53;;;;;;;;;;;;;;;22.44;30.11;98756.78;5036586;28;1042;-71
2021/10/06 12:41:19;;;;;;;;;;;;;;;22.29;30.10;98757.03;5036483;28;1492;-69
2021/10/06 12:43:45;;;;;;;;;;;;;;;22.33;30.14;98745.63;5036194;28;1996;-71
2021/10/06 12:46:11;;;;;;;;;;;;;;;22.35;29.93;98751.66;5036514;28;1087;-73
2021/10/06 12:48:37;;;;;;;;;;;;;;;22.23;30.08;98758.75;5035606;28;2010;-72
2021/10/06 12:51:03;;;;;;;;;;;;;;;22.23;30.33;98778.59;5036143;28;1060;-73
2021/10/06 12:53:28;;;;;;;;;;;;;;;22.41;29.85;98768.97;5036248;28;1070;-73
2021/10/06 12:55:54;;;;;;;;;;;;;;;22.42;29.87;98770.56;5039356;28;1044;-72
2021/10/06 12:58:19;;;;;;;;;;;;;;;22.43;29.74;98766.50;5066153;28;1862;-72